sensor_id;sensor_type;location;lat;lon;timestamp;P1;durP1;ratioP1;P2;durP2;ratioP2
42420;SDS011;28063;48.140;11.588;2024-03-06T00:00:16;23.40;;;15.05;;
42420;SDS011;28063;48.140;11.588;2024-03-06T00:02:43;19.48;;;13.30;;
42420;SDS011;28063;48.140;11.588;2024-03-06T00:05:10;15.90;;;11.60;;
42420;SDS011;28063;48.140;11.588;2024-03-06T00:07:36;21.58;;;14.95;;
42420;SDS011;28063;48.140;11.588;2024-03-06T00:10:02;18.98;;;13.25;;
42420;SDS011;28063;48.140;11.588;2024-03-06T00:12:30;25.05;;;15.55;;
42420;SDS011;28063;48.140;11.588;2024-03-06T00:14:56;19.33;;;14.13;;
42420;SDS011;28063;48.140;11.588;2024-03-06T00:17:22;22.40;;;14.82;;
42420;SDS011;28063;48.140;11.588;2024-03-06T00:19:48;19.23;;;13.85;;
42420;SDS011;28063;48.140;11.588;2024-03-06T00:22:14;21.40;;;14.50;;
42420;SDS011;28063;48.140;11.588;2024-03-06T00:24:40;18.08;;;12.90;;
42420;SDS011;28063;48.140;11.588;2024-03-06T00:27:06;17.52;;;12.18;;
42420;SDS011;28063;48.140;11.588;2024-03-06T00:29:32;16.90;;;11.98;;
42420;SDS011;28063;48.140;11.588;2024-03-06T00:31:58;16.88;;;11.95;;
42420;SDS011;28063;48.140;11.588;2024-03-06T00:34:24;15.00;;;10.90;;
42420;SDS011;28063;48.140;11.588;2024-03-06T00:36:52;21.23;;;13.65;;
42420;SDS011;28063;48.140;11.588;2024-03-06T00:39:19;19.83;;;13.68;;
42420;SDS011;28063;48.140;11.588;2024-03-06T00:41:45;19.10;;;13.65;;
42420;SDS011;28063;48.140;11.588;2024-03-06T00:44:11;20.25;;;14.23;;
42420;SDS011;28063;48.140;11.588;2024-03-06T00:46:38;20.83;;;13.90;;
42420;SDS011;28063;48.140;11.588;2024-03-06T00:49:04;20.25;;;14.02;;
42420;SDS011;28063;48.140;11.588;2024-03-06T00:51:30;24.13;;;15.48;;
42420;SDS011;28063;48.140;11.588;2024-03-06T00:54:01;19.50;;;13.88;;
42420;SDS011;28063;48.140;11.588;2024-03-06T00:56:27;17.85;;;13.13;;
42420;SDS011;28063;48.140;11.588;2024-03-06T00:58:53;23.10;;;15.38;;
42420;SDS011;28063;48.140;11.588;2024-03-06T01:01:19;20.55;;;14.25;;
42420;SDS011;28063;48.140;11.588;2024-03-06T01:03:45;21.45;;;14.50;;
42420;SDS011;28063;48.140;11.588;2024-03-06T01:06:11;19.92;;;13.77;;
42420;SDS011;28063;48.140;11.588;2024-03-06T01:08:37;17.90;;;13.25;;
42420;SDS011;28063;48.140;11.588;2024-03-06T01:11:03;22.42;;;15.05;;
42420;SDS011;28063;48.140;11.588;2024-03-06T01:13:30;22.10;;;14.88;;
42420;SDS011;28063;48.140;11.588;2024-03-06T01:15:56;19.35;;;13.85;;
42420;SDS011;28063;48.140;11.588;2024-03-06T01:18:22;24.95;;;15.73;;
42420;SDS011;28063;48.140;11.588;2024-03-06T01:20:48;20.98;;;14.70;;
42420;SDS011;28063;48.140;11.588;2024-03-06T01:23:15;21.55;;;14.60;;
42420;SDS011;28063;48.140;11.588;2024-03-06T01:25:41;23.25;;;15.98;;
42420;SDS011;28063;48.140;11.588;2024-03-06T01:28:08;21.33;;;14.40;;
42420;SDS011;28063;48.140;11.588;2024-03-06T01:30:34;20.55;;;13.75;;
42420;SDS011;28063;48.140;11.588;2024-03-06T01:33:00;22.58;;;15.82;;
42420;SDS011;28063;48.140;11.588;2024-03-06T01:35:26;20.90;;;13.60;;
42420;SDS011;28063;48.140;11.588;2024-03-06T01:37:52;24.05;;;15.93;;
42420;SDS011;28063;48.140;11.588;2024-03-06T01:40:18;25.20;;;17.48;;
42420;SDS011;28063;48.140;11.588;2024-03-06T01:42:46;25.98;;;16.63;;
42420;SDS011;28063;48.140;11.588;2024-03-06T01:45:13;22.35;;;14.18;;
42420;SDS011;28063;48.140;11.588;2024-03-06T01:47:39;20.92;;;13.90;;
42420;SDS011;28063;48.140;11.588;2024-03-06T01:50:05;26.08;;;15.48;;
42420;SDS011;28063;48.140;11.588;2024-03-06T01:52:34;22.98;;;15.43;;
42420;SDS011;28063;48.140;11.588;2024-03-06T01:55:01;25.70;;;15.73;;
42420;SDS011;28063;48.140;11.588;2024-03-06T01:57:27;28.88;;;17.52;;
42420;SDS011;28063;48.140;11.588;2024-03-06T01:59:53;28.98;;;16.85;;
42420;SDS011;28063;48.140;11.588;2024-03-06T02:02:20;22.13;;;14.68;;
42420;SDS011;28063;48.140;11.588;2024-03-06T02:04:46;23.17;;;15.77;;
42420;SDS011;28063;48.140;11.588;2024-03-06T02:07:12;26.52;;;16.70;;
42420;SDS011;28063;48.140;11.588;2024-03-06T02:09:39;26.45;;;17.58;;
42420;SDS011;28063;48.140;11.588;2024-03-06T02:12:05;29.55;;;18.45;;
42420;SDS011;28063;48.140;11.588;2024-03-06T02:14:33;31.42;;;18.75;;
42420;SDS011;28063;48.140;11.588;2024-03-06T02:16:59;29.05;;;17.88;;
42420;SDS011;28063;48.140;11.588;2024-03-06T02:19:37;29.33;;;17.73;;
42420;SDS011;28063;48.140;11.588;2024-03-06T02:22:03;29.00;;;18.02;;
42420;SDS011;28063;48.140;11.588;2024-03-06T02:24:29;28.60;;;17.73;;
42420;SDS011;28063;48.140;11.588;2024-03-06T02:26:56;27.38;;;17.08;;
42420;SDS011;28063;48.140;11.588;2024-03-06T02:29:25;30.67;;;18.52;;
42420;SDS011;28063;48.140;11.588;2024-03-06T02:31:51;32.50;;;18.83;;
42420;SDS011;28063;48.140;11.588;2024-03-06T02:34:17;33.58;;;18.75;;
42420;SDS011;28063;48.140;11.588;2024-03-06T02:36:43;31.20;;;19.02;;
42420;SDS011;28063;48.140;11.588;2024-03-06T02:39:09;32.03;;;18.92;;
42420;SDS011;28063;48.140;11.588;2024-03-06T02:41:36;34.80;;;19.33;;
42420;SDS011;28063;48.140;11.588;2024-03-06T02:44:02;33.45;;;19.17;;
42420;SDS011;28063;48.140;11.588;2024-03-06T02:46:28;31.10;;;17.73;;
42420;SDS011;28063;48.140;11.588;2024-03-06T02:48:55;32.08;;;18.38;;
42420;SDS011;28063;48.140;11.588;2024-03-06T02:51:21;29.75;;;17.77;;
42420;SDS011;28063;48.140;11.588;2024-03-06T02:53:47;32.40;;;16.50;;
42420;SDS011;28063;48.140;11.588;2024-03-06T02:56:20;28.52;;;16.23;;
42420;SDS011;28063;48.140;11.588;2024-03-06T02:58:46;28.75;;;17.25;;
42420;SDS011;28063;48.140;11.588;2024-03-06T03:01:13;31.48;;;17.15;;
42420;SDS011;28063;48.140;11.588;2024-03-06T03:03:42;28.98;;;16.60;;
42420;SDS011;28063;48.140;11.588;2024-03-06T03:06:09;25.75;;;15.13;;
42420;SDS011;28063;48.140;11.588;2024-03-06T03:08:39;26.38;;;14.75;;
42420;SDS011;28063;48.140;11.588;2024-03-06T03:11:05;22.60;;;13.23;;
42420;SDS011;28063;48.140;11.588;2024-03-06T03:13:33;18.90;;;11.98;;
42420;SDS011;28063;48.140;11.588;2024-03-06T03:15:59;18.83;;;10.90;;
42420;SDS011;28063;48.140;11.588;2024-03-06T03:18:25;15.15;;;9.30;;
42420;SDS011;28063;48.140;11.588;2024-03-06T03:20:52;11.90;;;7.55;;
42420;SDS011;28063;48.140;11.588;2024-03-06T03:23:18;12.38;;;7.50;;
42420;SDS011;28063;48.140;11.588;2024-03-06T03:25:47;10.45;;;6.18;;
42420;SDS011;28063;48.140;11.588;2024-03-06T03:28:16;8.15;;;5.43;;
42420;SDS011;28063;48.140;11.588;2024-03-06T03:30:42;6.75;;;5.00;;
42420;SDS011;28063;48.140;11.588;2024-03-06T03:33:11;6.88;;;4.40;;
42420;SDS011;28063;48.140;11.588;2024-03-06T03:35:37;5.78;;;4.25;;
42420;SDS011;28063;48.140;11.588;2024-03-06T03:38:04;5.10;;;3.60;;
42420;SDS011;28063;48.140;11.588;2024-03-06T03:40:30;4.57;;;2.95;;
42420;SDS011;28063;48.140;11.588;2024-03-06T03:42:57;3.40;;;2.55;;
42420;SDS011;28063;48.140;11.588;2024-03-06T03:45:24;3.30;;;2.53;;
42420;SDS011;28063;48.140;11.588;2024-03-06T03:47:50;2.55;;;2.33;;
42420;SDS011;28063;48.140;11.588;2024-03-06T03:50:16;2.97;;;2.25;;
42420;SDS011;28063;48.140;11.588;2024-03-06T03:52:42;1.98;;;1.77;;
42420;SDS011;28063;48.140;11.588;2024-03-06T03:55:09;1.70;;;1.60;;
42420;SDS011;28063;48.140;11.588;2024-03-06T03:57:35;1.70;;;1.42;;
42420;SDS011;28063;48.140;11.588;2024-03-06T04:00:01;1.48;;;1.38;;
42420;SDS011;28063;48.140;11.588;2024-03-06T04:02:27;1.38;;;1.25;;
42420;SDS011;28063;48.140;11.588;2024-03-06T04:04:53;1.30;;;1.05;;
42420;SDS011;28063;48.140;11.588;2024-03-06T04:07:20;1.50;;;1.38;;
42420;SDS011;28063;48.140;11.588;2024-03-06T04:09:46;1.27;;;1.20;;
42420;SDS011;28063;48.140;11.588;2024-03-06T04:12:12;2.17;;;1.50;;
42420;SDS011;28063;48.140;11.588;2024-03-06T04:14:38;1.40;;;1.30;;
42420;SDS011;28063;48.140;11.588;2024-03-06T04:17:04;1.58;;;1.48;;
42420;SDS011;28063;48.140;11.588;2024-03-06T04:19:31;1.23;;;1.13;;
42420;SDS011;28063;48.140;11.588;2024-03-06T04:21:57;1.58;;;1.48;;
42420;SDS011;28063;48.140;11.588;2024-03-06T04:24:23;1.15;;;1.05;;
42420;SDS011;28063;48.140;11.588;2024-03-06T04:26:49;0.98;;;0.90;;
42420;SDS011;28063;48.140;11.588;2024-03-06T04:29:16;1.52;;;1.42;;
42420;SDS011;28063;48.140;11.588;2024-03-06T04:31:42;1.30;;;1.20;;
42420;SDS011;28063;48.140;11.588;2024-03-06T04:34:08;0.90;;;0.85;;
42420;SDS011;28063;48.140;11.588;2024-03-06T04:36:34;1.33;;;1.23;;
42420;SDS011;28063;48.140;11.588;2024-03-06T04:39:00;1.35;;;1.25;;
42420;SDS011;28063;48.140;11.588;2024-03-06T04:41:32;1.13;;;1.03;;
42420;SDS011;28063;48.140;11.588;2024-03-06T04:43:58;1.10;;;1.10;;
42420;SDS011;28063;48.140;11.588;2024-03-06T04:46:26;1.38;;;1.10;;
42420;SDS011;28063;48.140;11.588;2024-03-06T04:48:52;1.15;;;1.08;;
42420;SDS011;28063;48.140;11.588;2024-03-06T04:51:18;1.20;;;1.10;;
42420;SDS011;28063;48.140;11.588;2024-03-06T04:53:44;1.13;;;1.00;;
42420;SDS011;28063;48.140;11.588;2024-03-06T04:56:11;1.33;;;1.13;;
42420;SDS011;28063;48.140;11.588;2024-03-06T04:58:37;0.95;;;0.90;;
42420;SDS011;28063;48.140;11.588;2024-03-06T05:01:04;1.08;;;0.98;;
42420;SDS011;28063;48.140;11.588;2024-03-06T05:03:30;0.75;;;0.75;;
42420;SDS011;28063;48.140;11.588;2024-03-06T05:05:56;1.35;;;1.25;;
42420;SDS011;28063;48.140;11.588;2024-03-06T05:08:22;1.63;;;1.25;;
42420;SDS011;28063;48.140;11.588;2024-03-06T05:10:48;1.23;;;1.13;;
42420;SDS011;28063;48.140;11.588;2024-03-06T05:13:14;1.55;;;1.02;;
42420;SDS011;28063;48.140;11.588;2024-03-06T05:15:40;1.13;;;1.02;;
42420;SDS011;28063;48.140;11.588;2024-03-06T05:18:07;1.05;;;1.00;;
42420;SDS011;28063;48.140;11.588;2024-03-06T05:20:34;1.45;;;1.13;;
42420;SDS011;28063;48.140;11.588;2024-03-06T05:23:00;1.55;;;1.05;;
42420;SDS011;28063;48.140;11.588;2024-03-06T05:25:27;1.38;;;1.20;;
42420;SDS011;28063;48.140;11.588;2024-03-06T05:27:53;3.08;;;1.30;;
42420;SDS011;28063;48.140;11.588;2024-03-06T05:30:20;1.05;;;0.95;;
42420;SDS011;28063;48.140;11.588;2024-03-06T05:32:46;1.45;;;1.35;;
42420;SDS011;28063;48.140;11.588;2024-03-06T05:35:12;1.52;;;1.42;;
42420;SDS011;28063;48.140;11.588;2024-03-06T05:37:38;1.17;;;1.08;;
42420;SDS011;28063;48.140;11.588;2024-03-06T05:40:04;1.25;;;1.15;;
42420;SDS011;28063;48.140;11.588;2024-03-06T05:42:31;1.80;;;1.65;;
42420;SDS011;28063;48.140;11.588;2024-03-06T05:44:57;1.33;;;1.23;;
42420;SDS011;28063;48.140;11.588;2024-03-06T05:49:56;1.52;;;1.30;;
42420;SDS011;28063;48.140;11.588;2024-03-06T05:52:22;1.08;;;1.08;;
42420;SDS011;28063;48.140;11.588;2024-03-06T05:54:49;1.00;;;0.90;;
42420;SDS011;28063;48.140;11.588;2024-03-06T05:57:15;1.48;;;0.90;;
42420;SDS011;28063;48.140;11.588;2024-03-06T05:59:41;1.58;;;1.10;;
42420;SDS011;28063;48.140;11.588;2024-03-06T06:02:08;0.80;;;0.80;;
42420;SDS011;28063;48.140;11.588;2024-03-06T06:04:34;1.25;;;1.15;;
42420;SDS011;28063;48.140;11.588;2024-03-06T06:07:00;1.30;;;1.20;;
42420;SDS011;28063;48.140;11.588;2024-03-06T06:09:28;1.42;;;1.00;;
42420;SDS011;28063;48.140;11.588;2024-03-06T06:11:54;1.27;;;1.17;;
42420;SDS011;28063;48.140;11.588;2024-03-06T06:14:20;0.80;;;0.80;;
42420;SDS011;28063;48.140;11.588;2024-03-06T06:16:47;0.88;;;0.88;;
42420;SDS011;28063;48.140;11.588;2024-03-06T06:19:13;1.20;;;0.95;;
42420;SDS011;28063;48.140;11.588;2024-03-06T06:21:39;1.30;;;1.20;;
42420;SDS011;28063;48.140;11.588;2024-03-06T06:24:05;1.30;;;1.20;;
42420;SDS011;28063;48.140;11.588;2024-03-06T06:26:32;1.30;;;1.20;;
42420;SDS011;28063;48.140;11.588;2024-03-06T06:28:58;1.92;;;1.20;;
42420;SDS011;28063;48.140;11.588;2024-03-06T06:31:24;1.40;;;1.25;;
42420;SDS011;28063;48.140;11.588;2024-03-06T06:33:51;1.42;;;1.33;;
42420;SDS011;28063;48.140;11.588;2024-03-06T06:36:17;1.33;;;1.23;;
42420;SDS011;28063;48.140;11.588;2024-03-06T06:38:44;1.17;;;1.08;;
42420;SDS011;28063;48.140;11.588;2024-03-06T06:41:10;0.98;;;0.98;;
42420;SDS011;28063;48.140;11.588;2024-03-06T06:43:36;1.02;;;0.93;;
42420;SDS011;28063;48.140;11.588;2024-03-06T06:46:03;0.73;;;0.73;;
42420;SDS011;28063;48.140;11.588;2024-03-06T06:48:31;1.23;;;1.13;;
42420;SDS011;28063;48.140;11.588;2024-03-06T06:50:59;1.08;;;1.08;;
42420;SDS011;28063;48.140;11.588;2024-03-06T06:53:27;1.45;;;1.23;;
42420;SDS011;28063;48.140;11.588;2024-03-06T06:55:53;1.40;;;1.30;;
42420;SDS011;28063;48.140;11.588;2024-03-06T06:58:19;1.70;;;1.50;;
42420;SDS011;28063;48.140;11.588;2024-03-06T07:00:45;1.50;;;1.40;;
42420;SDS011;28063;48.140;11.588;2024-03-06T07:03:12;1.10;;;1.00;;
42420;SDS011;28063;48.140;11.588;2024-03-06T07:05:38;1.45;;;1.30;;
42420;SDS011;28063;48.140;11.588;2024-03-06T07:08:06;1.60;;;1.50;;
42420;SDS011;28063;48.140;11.588;2024-03-06T07:10:33;1.20;;;0.95;;
42420;SDS011;28063;48.140;11.588;2024-03-06T07:13:00;1.33;;;1.23;;
42420;SDS011;28063;48.140;11.588;2024-03-06T07:15:27;1.20;;;1.02;;
42420;SDS011;28063;48.140;11.588;2024-03-06T07:17:54;1.60;;;1.48;;
42420;SDS011;28063;48.140;11.588;2024-03-06T07:20:20;2.42;;;1.65;;
42420;SDS011;28063;48.140;11.588;2024-03-06T07:22:46;2.17;;;1.70;;
42420;SDS011;28063;48.140;11.588;2024-03-06T07:25:12;1.25;;;1.15;;
42420;SDS011;28063;48.140;11.588;2024-03-06T07:27:39;1.83;;;1.38;;
42420;SDS011;28063;48.140;11.588;2024-03-06T07:30:05;1.33;;;1.23;;
42420;SDS011;28063;48.140;11.588;2024-03-06T07:32:32;1.50;;;1.40;;
42420;SDS011;28063;48.140;11.588;2024-03-06T07:34:58;1.23;;;1.13;;
42420;SDS011;28063;48.140;11.588;2024-03-06T07:37:24;1.20;;;1.10;;
42420;SDS011;28063;48.140;11.588;2024-03-06T07:39:50;1.30;;;1.20;;
42420;SDS011;28063;48.140;11.588;2024-03-06T07:42:17;1.00;;;1.00;;
42420;SDS011;28063;48.140;11.588;2024-03-06T07:44:43;0.93;;;0.93;;
42420;SDS011;28063;48.140;11.588;2024-03-06T07:47:09;1.92;;;1.25;;
42420;SDS011;28063;48.140;11.588;2024-03-06T07:49:36;1.67;;;1.45;;
42420;SDS011;28063;48.140;11.588;2024-03-06T07:52:02;1.55;;;1.45;;
42420;SDS011;28063;48.140;11.588;2024-03-06T07:54:28;1.02;;;1.00;;
42420;SDS011;28063;48.140;11.588;2024-03-06T07:56:54;1.15;;;1.08;;
42420;SDS011;28063;48.140;11.588;2024-03-06T07:59:20;1.10;;;1.00;;
42420;SDS011;28063;48.140;11.588;2024-03-06T08:01:47;1.33;;;1.23;;
42420;SDS011;28063;48.140;11.588;2024-03-06T08:04:13;1.65;;;1.30;;
42420;SDS011;28063;48.140;11.588;2024-03-06T08:06:39;1.48;;;1.38;;
42420;SDS011;28063;48.140;11.588;2024-03-06T08:09:05;1.35;;;1.23;;
42420;SDS011;28063;48.140;11.588;2024-03-06T08:11:33;1.50;;;1.40;;
42420;SDS011;28063;48.140;11.588;2024-03-06T08:13:59;0.85;;;0.85;;
42420;SDS011;28063;48.140;11.588;2024-03-06T08:16:26;1.08;;;0.90;;
42420;SDS011;28063;48.140;11.588;2024-03-06T08:18:53;1.23;;;0.90;;
42420;SDS011;28063;48.140;11.588;2024-03-06T08:21:19;1.45;;;1.17;;
42420;SDS011;28063;48.140;11.588;2024-03-06T08:23:45;2.13;;;1.40;;
42420;SDS011;28063;48.140;11.588;2024-03-06T08:26:14;1.88;;;1.50;;
42420;SDS011;28063;48.140;11.588;2024-03-06T08:28:41;1.30;;;1.20;;
42420;SDS011;28063;48.140;11.588;2024-03-06T08:31:07;0.80;;;0.80;;
42420;SDS011;28063;48.140;11.588;2024-03-06T08:33:33;0.85;;;0.85;;
42420;SDS011;28063;48.140;11.588;2024-03-06T08:35:59;1.02;;;0.95;;
42420;SDS011;28063;48.140;11.588;2024-03-06T08:38:26;0.57;;;0.57;;
42420;SDS011;28063;48.140;11.588;2024-03-06T08:40:52;1.15;;;0.80;;
42420;SDS011;28063;48.140;11.588;2024-03-06T08:43:18;0.82;;;0.82;;
42420;SDS011;28063;48.140;11.588;2024-03-06T08:45:45;0.90;;;0.90;;
42420;SDS011;28063;48.140;11.588;2024-03-06T08:48:11;1.10;;;1.00;;
42420;SDS011;28063;48.140;11.588;2024-03-06T08:50:37;0.82;;;0.82;;
42420;SDS011;28063;48.140;11.588;2024-03-06T08:53:04;1.10;;;1.00;;
42420;SDS011;28063;48.140;11.588;2024-03-06T08:55:30;0.75;;;0.75;;
42420;SDS011;28063;48.140;11.588;2024-03-06T08:57:56;0.75;;;0.75;;
42420;SDS011;28063;48.140;11.588;2024-03-06T09:00:23;1.30;;;1.00;;
42420;SDS011;28063;48.140;11.588;2024-03-06T09:02:51;0.82;;;0.82;;
42420;SDS011;28063;48.140;11.588;2024-03-06T09:05:18;1.20;;;1.10;;
42420;SDS011;28063;48.140;11.588;2024-03-06T09:07:45;1.90;;;1.23;;
42420;SDS011;28063;48.140;11.588;2024-03-06T09:10:11;1.10;;;1.00;;
42420;SDS011;28063;48.140;11.588;2024-03-06T09:12:38;1.05;;;0.95;;
42420;SDS011;28063;48.140;11.588;2024-03-06T09:15:04;1.13;;;1.02;;
42420;SDS011;28063;48.140;11.588;2024-03-06T09:17:34;0.82;;;0.82;;
42420;SDS011;28063;48.140;11.588;2024-03-06T09:20:00;1.48;;;1.20;;
42420;SDS011;28063;48.140;11.588;2024-03-06T09:22:34;1.65;;;1.13;;
42420;SDS011;28063;48.140;11.588;2024-03-06T09:25:01;1.23;;;1.00;;
42420;SDS011;28063;48.140;11.588;2024-03-06T09:27:27;1.20;;;1.08;;
42420;SDS011;28063;48.140;11.588;2024-03-06T09:29:53;0.63;;;0.63;;
42420;SDS011;28063;48.140;11.588;2024-03-06T09:32:19;0.95;;;0.93;;
42420;SDS011;28063;48.140;11.588;2024-03-06T09:34:47;1.17;;;0.90;;
42420;SDS011;28063;48.140;11.588;2024-03-06T09:37:13;0.65;;;0.60;;
42420;SDS011;28063;48.140;11.588;2024-03-06T09:39:40;0.70;;;0.70;;
42420;SDS011;28063;48.140;11.588;2024-03-06T09:42:06;0.75;;;0.65;;
42420;SDS011;28063;48.140;11.588;2024-03-06T09:44:32;0.47;;;0.40;;
42420;SDS011;28063;48.140;11.588;2024-03-06T09:46:59;0.40;;;0.40;;
42420;SDS011;28063;48.140;11.588;2024-03-06T09:49:25;0.50;;;0.50;;
42420;SDS011;28063;48.140;11.588;2024-03-06T09:51:51;0.50;;;0.50;;
42420;SDS011;28063;48.140;11.588;2024-03-06T09:54:20;0.80;;;0.80;;
42420;SDS011;28063;48.140;11.588;2024-03-06T09:56:49;0.55;;;0.55;;
42420;SDS011;28063;48.140;11.588;2024-03-06T09:59:15;0.40;;;0.40;;
42420;SDS011;28063;48.140;11.588;2024-03-06T10:01:53;0.60;;;0.60;;
42420;SDS011;28063;48.140;11.588;2024-03-06T10:04:20;0.70;;;0.70;;
42420;SDS011;28063;48.140;11.588;2024-03-06T10:06:46;0.85;;;0.50;;
42420;SDS011;28063;48.140;11.588;2024-03-06T10:09:16;0.77;;;0.77;;
42420;SDS011;28063;48.140;11.588;2024-03-06T10:11:42;0.80;;;0.80;;
42420;SDS011;28063;48.140;11.588;2024-03-06T10:14:08;0.90;;;0.88;;
42420;SDS011;28063;48.140;11.588;2024-03-06T10:16:37;1.23;;;0.70;;
42420;SDS011;28063;48.140;11.588;2024-03-06T10:19:16;1.98;;;1.10;;
42420;SDS011;28063;48.140;11.588;2024-03-06T10:21:43;1.08;;;1.08;;
42420;SDS011;28063;48.140;11.588;2024-03-06T10:24:10;1.48;;;1.00;;
42420;SDS011;28063;48.140;11.588;2024-03-06T10:26:36;2.20;;;1.05;;
42420;SDS011;28063;48.140;11.588;2024-03-06T10:29:02;0.98;;;0.90;;
42420;SDS011;28063;48.140;11.588;2024-03-06T10:31:28;1.52;;;1.30;;
42420;SDS011;28063;48.140;11.588;2024-03-06T10:33:54;1.73;;;1.38;;
42420;SDS011;28063;48.140;11.588;2024-03-06T10:36:21;3.13;;;1.80;;
42420;SDS011;28063;48.140;11.588;2024-03-06T10:38:48;1.77;;;1.35;;
42420;SDS011;28063;48.140;11.588;2024-03-06T10:41:17;0.93;;;0.88;;
42420;SDS011;28063;48.140;11.588;2024-03-06T10:43:49;1.60;;;1.10;;
42420;SDS011;28063;48.140;11.588;2024-03-06T10:46:16;1.67;;;0.95;;
42420;SDS011;28063;48.140;11.588;2024-03-06T10:48:46;1.42;;;0.80;;
42420;SDS011;28063;48.140;11.588;2024-03-06T10:51:14;0.60;;;0.60;;
42420;SDS011;28063;48.140;11.588;2024-03-06T10:53:42;0.85;;;0.80;;
42420;SDS011;28063;48.140;11.588;2024-03-06T10:56:09;1.33;;;0.80;;
42420;SDS011;28063;48.140;11.588;2024-03-06T10:58:35;1.02;;;0.90;;
42420;SDS011;28063;48.140;11.588;2024-03-06T11:01:02;0.95;;;0.82;;
42420;SDS011;28063;48.140;11.588;2024-03-06T11:03:29;0.70;;;0.70;;
42420;SDS011;28063;48.140;11.588;2024-03-06T11:05:56;0.50;;;0.50;;
42420;SDS011;28063;48.140;11.588;2024-03-06T11:08:22;1.30;;;0.85;;
42420;SDS011;28063;48.140;11.588;2024-03-06T11:10:50;0.85;;;0.77;;
42420;SDS011;28063;48.140;11.588;2024-03-06T11:15:43;1.10;;;1.00;;
42420;SDS011;28063;48.140;11.588;2024-03-06T11:18:51;0.63;;;0.63;;
42420;SDS011;28063;48.140;11.588;2024-03-06T11:23:27;1.17;;;1.08;;
42420;SDS011;28063;48.140;11.588;2024-03-06T11:31:00;1.85;;;1.25;;
42420;SDS011;28063;48.140;11.588;2024-03-06T11:33:40;1.30;;;1.20;;
42420;SDS011;28063;48.140;11.588;2024-03-06T11:36:13;2.08;;;1.08;;
42420;SDS011;28063;48.140;11.588;2024-03-06T11:39:02;1.55;;;1.30;;
42420;SDS011;28063;48.140;11.588;2024-03-06T11:41:29;2.22;;;1.40;;
42420;SDS011;28063;48.140;11.588;2024-03-06T11:43:56;1.60;;;1.50;;
42420;SDS011;28063;48.140;11.588;2024-03-06T11:46:23;1.15;;;1.05;;
42420;SDS011;28063;48.140;11.588;2024-03-06T11:49:21;1.60;;;1.00;;
42420;SDS011;28063;48.140;11.588;2024-03-06T11:51:49;1.55;;;1.42;;
42420;SDS011;28063;48.140;11.588;2024-03-06T11:54:16;2.35;;;1.73;;
42420;SDS011;28063;48.140;11.588;2024-03-06T11:56:49;1.63;;;1.27;;
42420;SDS011;28063;48.140;11.588;2024-03-06T11:59:16;1.25;;;1.00;;
42420;SDS011;28063;48.140;11.588;2024-03-06T12:01:42;1.30;;;1.20;;
42420;SDS011;28063;48.140;11.588;2024-03-06T12:04:09;1.70;;;1.27;;
42420;SDS011;28063;48.140;11.588;2024-03-06T12:06:35;1.75;;;1.30;;
42420;SDS011;28063;48.140;11.588;2024-03-06T12:09:01;1.55;;;1.30;;
42420;SDS011;28063;48.140;11.588;2024-03-06T12:11:28;1.70;;;1.17;;
42420;SDS011;28063;48.140;11.588;2024-03-06T12:13:56;0.93;;;0.93;;
42420;SDS011;28063;48.140;11.588;2024-03-06T12:16:22;1.58;;;0.90;;
42420;SDS011;28063;48.140;11.588;2024-03-06T12:18:55;1.15;;;0.95;;
42420;SDS011;28063;48.140;11.588;2024-03-06T12:21:23;1.58;;;1.00;;
42420;SDS011;28063;48.140;11.588;2024-03-06T12:23:49;1.40;;;1.10;;
42420;SDS011;28063;48.140;11.588;2024-03-06T12:26:15;1.30;;;1.20;;
42420;SDS011;28063;48.140;11.588;2024-03-06T12:28:41;1.30;;;1.20;;
42420;SDS011;28063;48.140;11.588;2024-03-06T12:31:08;2.33;;;1.52;;
42420;SDS011;28063;48.140;11.588;2024-03-06T12:33:34;1.58;;;1.30;;
42420;SDS011;28063;48.140;11.588;2024-03-06T12:36:04;2.20;;;1.60;;
42420;SDS011;28063;48.140;11.588;2024-03-06T12:38:31;1.48;;;1.33;;
42420;SDS011;28063;48.140;11.588;2024-03-06T12:40:58;2.17;;;1.58;;
42420;SDS011;28063;48.140;11.588;2024-03-06T12:43:25;2.10;;;1.52;;
42420;SDS011;28063;48.140;11.588;2024-03-06T12:45:51;2.38;;;1.80;;
42420;SDS011;28063;48.140;11.588;2024-03-06T12:48:22;2.35;;;1.70;;
42420;SDS011;28063;48.140;11.588;2024-03-06T12:50:48;2.50;;;1.60;;
42420;SDS011;28063;48.140;11.588;2024-03-06T12:53:20;2.33;;;1.70;;
42420;SDS011;28063;48.140;11.588;2024-03-06T12:55:46;1.60;;;1.30;;
42420;SDS011;28063;48.140;11.588;2024-03-06T12:58:13;1.45;;;1.35;;
42420;SDS011;28063;48.140;11.588;2024-03-06T13:00:39;2.22;;;1.60;;
42420;SDS011;28063;48.140;11.588;2024-03-06T13:03:06;2.88;;;2.00;;
42420;SDS011;28063;48.140;11.588;2024-03-06T13:05:32;2.42;;;1.42;;
42420;SDS011;28063;48.140;11.588;2024-03-06T13:07:58;1.75;;;1.40;;
42420;SDS011;28063;48.140;11.588;2024-03-06T13:10:25;2.03;;;1.50;;
42420;SDS011;28063;48.140;11.588;2024-03-06T13:12:51;1.50;;;1.40;;
42420;SDS011;28063;48.140;11.588;2024-03-06T13:15:17;1.33;;;1.23;;
42420;SDS011;28063;48.140;11.588;2024-03-06T13:17:43;1.40;;;1.15;;
42420;SDS011;28063;48.140;11.588;2024-03-06T13:20:09;1.88;;;1.50;;
42420;SDS011;28063;48.140;11.588;2024-03-06T13:22:38;2.38;;;1.50;;
42420;SDS011;28063;48.140;11.588;2024-03-06T13:25:04;1.92;;;1.55;;
42420;SDS011;28063;48.140;11.588;2024-03-06T13:27:31;3.63;;;1.80;;
42420;SDS011;28063;48.140;11.588;2024-03-06T13:29:57;2.17;;;1.50;;
42420;SDS011;28063;48.140;11.588;2024-03-06T13:32:23;1.35;;;1.25;;
42420;SDS011;28063;48.140;11.588;2024-03-06T13:34:50;1.92;;;1.67;;
42420;SDS011;28063;48.140;11.588;2024-03-06T13:37:16;2.10;;;1.13;;
42420;SDS011;28063;48.140;11.588;2024-03-06T13:39:42;1.42;;;1.33;;
42420;SDS011;28063;48.140;11.588;2024-03-06T13:42:08;2.35;;;2.10;;
42420;SDS011;28063;48.140;11.588;2024-03-06T13:44:35;2.45;;;1.52;;
42420;SDS011;28063;48.140;11.588;2024-03-06T13:47:01;2.58;;;1.88;;
42420;SDS011;28063;48.140;11.588;2024-03-06T13:50:00;2.63;;;2.05;;
42420;SDS011;28063;48.140;11.588;2024-03-06T13:52:20;1.67;;;1.55;;
42420;SDS011;28063;48.140;11.588;2024-03-06T13:54:48;1.60;;;1.50;;
42420;SDS011;28063;48.140;11.588;2024-03-06T13:57:15;1.77;;;1.40;;
42420;SDS011;28063;48.140;11.588;2024-03-06T13:59:41;2.92;;;1.65;;
42420;SDS011;28063;48.140;11.588;2024-03-06T14:02:08;1.40;;;1.30;;
42420;SDS011;28063;48.140;11.588;2024-03-06T14:04:34;1.98;;;1.52;;
42420;SDS011;28063;48.140;11.588;2024-03-06T14:07:00;1.50;;;1.38;;
42420;SDS011;28063;48.140;11.588;2024-03-06T14:09:26;1.27;;;1.15;;
42420;SDS011;28063;48.140;11.588;2024-03-06T14:11:53;1.30;;;1.20;;
42420;SDS011;28063;48.140;11.588;2024-03-06T14:14:19;1.20;;;1.10;;
42420;SDS011;28063;48.140;11.588;2024-03-06T14:16:46;1.77;;;1.50;;
42420;SDS011;28063;48.140;11.588;2024-03-06T14:19:12;3.17;;;1.63;;
42420;SDS011;28063;48.140;11.588;2024-03-06T14:21:39;1.35;;;1.27;;
42420;SDS011;28063;48.140;11.588;2024-03-06T14:24:05;2.17;;;1.60;;
42420;SDS011;28063;48.140;11.588;2024-03-06T14:26:31;1.50;;;1.35;;
42420;SDS011;28063;48.140;11.588;2024-03-06T14:28:58;2.13;;;1.23;;
42420;SDS011;28063;48.140;11.588;2024-03-06T14:31:24;2.25;;;1.60;;
42420;SDS011;28063;48.140;11.588;2024-03-06T14:33:50;1.50;;;1.40;;
42420;SDS011;28063;48.140;11.588;2024-03-06T14:36:16;1.67;;;1.33;;
42420;SDS011;28063;48.140;11.588;2024-03-06T14:38:43;1.88;;;1.10;;